createdAt,value
2017-11-09T00:00:24.614Z,7.4
2017-11-09T00:23:51.034Z,7.4
2017-11-09T00:34:05.602Z,7.4
2017-11-09T00:44:18.881Z,7.4
2017-11-09T00:54:30.905Z,7.4
2017-11-09T01:04:44.873Z,7.4
2017-11-09T01:15:30.590Z,7.4
2017-11-09T01:26:01.847Z,7.3
2017-11-09T01:36:15.769Z,7.3
2017-11-09T01:51:32.341Z,7.3
2017-11-09T02:01:50.533Z,7.3
2017-11-09T02:12:03.814Z,7.3
2017-11-09T02:22:17.872Z,7.3
2017-11-09T02:33:02.626Z,7.2
2017-11-09T02:43:15.750Z,7.2
2017-11-09T02:54:02.127Z,7.2
2017-11-09T03:05:58.320Z,7.2
2017-11-09T03:16:14.775Z,7.2
2017-11-09T03:26:25.750Z,7.2
2017-11-09T03:49:22.271Z,7.1
2017-11-09T04:00:07.717Z,7.1
2017-11-09T04:11:39.056Z,7.1
2017-11-09T04:22:24.708Z,7.1
2017-11-09T04:33:12.437Z,7.1
2017-11-09T04:44:00.470Z,7.1
2017-11-09T04:54:15.078Z,7.1
2017-11-09T05:04:29.339Z,7.1
2017-11-09T05:15:46.038Z,7.1
2017-11-09T05:26:32.186Z,7.1
2017-11-09T05:36:45.984Z,7.1
2017-11-09T05:46:59.173Z,7.1
2017-11-09T05:57:44.705Z,7.1
2017-11-09T06:07:56.693Z,7.1
2017-11-09T06:18:19.748Z,7.1
2017-11-09T06:28:36.276Z,7.1
2017-11-09T06:39:09.994Z,7.1
2017-11-09T06:50:23.104Z,7.1
2017-11-09T07:00:39.108Z,7.1
2017-11-09T07:10:51.422Z,7.1
2017-11-09T07:21:06.253Z,7.1
2017-11-09T07:32:29.772Z,7.2
2017-11-09T07:42:47.476Z,7.2
2017-11-09T07:53:01.144Z,7.2
2017-11-09T08:03:13.067Z,7.2
2017-11-09T08:13:27.197Z,7.3
2017-11-09T08:23:40.577Z,7.3
2017-11-09T08:33:52.069Z,7.3
2017-11-09T08:44:06.512Z,7.3
2017-11-09T08:54:17.726Z,7.4
2017-11-09T09:04:31.956Z,7.5
2017-11-09T09:14:46.054Z,7.6
2017-11-09T09:25:31.313Z,8.0
2017-11-09T09:35:43.286Z,8.0
2017-11-09T09:45:56.902Z,8.2
2017-11-09T09:56:10.721Z,8.3
2017-11-09T10:06:55.619Z,8.6
2017-11-09T10:17:09.866Z,8.6
2017-11-09T10:27:55.540Z,9.2
2017-11-09T10:38:06.926Z,9.2
2017-11-09T10:48:52.716Z,9.3
2017-11-09T11:01:23.834Z,9.4
2017-11-09T11:11:38.000Z,9.4
2017-11-09T11:21:49.235Z,9.5
2017-11-09T11:32:00.733Z,9.5
2017-11-09T11:42:14.797Z,9.6
2017-11-09T11:52:59.487Z,9.6
2017-11-09T12:03:44.366Z,9.5
2017-11-09T12:13:58.293Z,9.6
2017-11-09T12:24:11.828Z,9.5
2017-11-09T12:34:23.357Z,9.5
2017-11-09T12:44:35.544Z,9.4
2017-11-09T12:54:49.810Z,9.4
2017-11-09T13:05:02.385Z,9.4
2017-11-09T13:15:16.053Z,9.5
2017-11-09T13:25:27.308Z,9.6
2017-11-09T13:35:38.846Z,9.7
2017-11-09T13:45:53.039Z,9.8
2017-11-09T13:56:08.340Z,9.9
2017-11-09T14:06:23.338Z,9.9
2017-11-09T14:16:37.311Z,9.9
2017-11-09T14:27:22.976Z,9.8
2017-11-09T14:37:38.456Z,9.8
2017-11-09T14:47:52.819Z,9.8
2017-11-09T14:58:06.790Z,9.7
2017-11-09T15:08:21.290Z,9.6
2017-11-09T15:20:18.763Z,9.3
2017-11-09T15:31:04.191Z,9.2
2017-11-09T15:41:17.731Z,9.2
2017-11-09T15:51:31.819Z,9.0
2017-11-09T16:01:46.034Z,8.8
2017-11-09T16:12:00.027Z,8.6
2017-11-09T16:22:11.802Z,8.5
2017-11-09T16:32:25.650Z,8.3
2017-11-09T16:42:37.113Z,8.2
2017-11-09T16:52:48.451Z,8.1
2017-11-09T17:03:02.352Z,8.1
2017-11-09T17:13:15.934Z,8.1
2017-11-09T17:23:30.093Z,8.1
2017-11-09T17:33:44.131Z,8.1
2017-11-09T17:50:07.301Z,8.4
2017-11-09T18:01:00.957Z,8.5
2017-11-09T18:11:12.219Z,8.4
2017-11-09T18:21:25.979Z,8.4
2017-11-09T18:31:40.354Z,8.4
2017-11-09T18:41:54.842Z,8.3
2017-11-09T18:52:06.845Z,8.3
2017-11-09T19:02:19.890Z,8.3
2017-11-09T19:13:09.840Z,8.2
2017-11-09T19:23:21.527Z,8.3
2017-11-09T19:33:36.200Z,8.3
2017-11-09T19:43:48.082Z,8.2
2017-11-09T19:54:33.895Z,8.2
2017-11-09T20:04:47.808Z,8.1
2017-11-09T20:15:02.354Z,8.1
2017-11-09T20:25:19.352Z,8.1
2017-11-09T20:35:33.686Z,8.1
2017-11-09T20:45:49.360Z,8.1
2017-11-09T20:56:16.435Z,8.1
2017-11-09T21:06:30.279Z,8.0
2017-11-09T21:16:43.873Z,8.0
2017-11-09T21:26:58.109Z,8.0
2017-11-09T21:37:10.478Z,8.0
2017-11-09T21:47:24.820Z,8.0
2017-11-09T21:58:10.237Z,7.9
2017-11-09T22:08:21.795Z,7.9
2017-11-09T22:45:29.985Z,7.9
2017-11-09T22:56:15.332Z,7.9
2017-11-09T23:06:27.766Z,7.9
2017-11-09T23:17:12.390Z,7.9
2017-11-09T23:27:26.788Z,7.9
2017-11-09T23:37:38.533Z,8.0
2017-11-09T23:47:52.769Z,7.9
2017-11-09T23:58:06.586Z,7.9
